createdAt,value
2022-09-14T00:01:52.255Z,7.55
2022-09-14T00:04:20.649Z,5.80
2022-09-14T00:06:49.329Z,6.53
2022-09-14T00:09:23.906Z,6.75
2022-09-14T00:11:52.034Z,7.25
2022-09-14T00:14:20.312Z,7.45
2022-09-14T00:16:48.957Z,7.03
2022-09-14T00:19:25.028Z,9.30
2022-09-14T00:21:55.204Z,11.68
2022-09-14T00:24:24.441Z,6.00
2022-09-14T00:26:52.457Z,7.97
2022-09-14T00:29:20.832Z,7.15
2022-09-14T00:31:48.658Z,9.40
2022-09-14T00:34:17.623Z,8.75
2022-09-14T00:36:47.554Z,12.23
2022-09-14T00:39:17.453Z,10.80
2022-09-14T00:41:47.690Z,6.55
2022-09-14T00:44:15.501Z,7.15
2022-09-14T00:46:46.439Z,6.68
2022-09-14T00:49:37.112Z,7.53
2022-09-14T00:52:19.341Z,7.15
2022-09-14T00:55:01.568Z,9.50
2022-09-14T00:57:37.215Z,7.55
2022-09-14T01:00:09.161Z,11.73
2022-09-14T01:02:37.564Z,8.15
2022-09-14T01:05:06.108Z,5.95
2022-09-14T01:07:45.257Z,6.05
2022-09-14T01:10:18.894Z,7.28
2022-09-14T01:12:58.240Z,7.13
2022-09-14T01:15:48.695Z,6.40
2022-09-14T01:18:29.772Z,8.52
2022-09-14T01:21:20.476Z,7.68
2022-09-14T01:24:03.073Z,6.40
2022-09-14T01:26:30.852Z,6.90
2022-09-14T01:29:19.086Z,9.65
2022-09-14T01:31:57.568Z,6.53
2022-09-14T01:34:27.955Z,9.02
2022-09-14T01:37:13.616Z,12.40
2022-09-14T01:39:45.905Z,6.28
2022-09-14T01:42:15.039Z,6.10
2022-09-14T01:44:47.564Z,6.70
2022-09-14T01:47:41.504Z,8.05
2022-09-14T01:50:19.043Z,7.75
2022-09-14T01:53:11.383Z,8.90
2022-09-14T01:55:52.092Z,9.32
2022-09-14T01:58:43.690Z,9.57
2022-09-14T02:01:17.227Z,4.65
2022-09-14T02:03:51.931Z,7.90
2022-09-14T02:06:32.884Z,6.80
2022-09-14T02:09:01.317Z,6.20
2022-09-14T02:11:29.274Z,5.20
2022-09-14T02:14:23.159Z,6.45
2022-09-14T02:16:50.905Z,6.53
2022-09-14T02:19:23.153Z,7.35
2022-09-14T02:21:51.822Z,11.52
2022-09-14T02:24:19.687Z,6.43
2022-09-14T02:26:51.271Z,6.75
2022-09-14T02:29:19.068Z,4.85
2022-09-14T02:32:14.321Z,8.45
2022-09-14T02:34:53.844Z,8.38
2022-09-14T02:37:24.391Z,5.57
2022-09-14T02:40:25.298Z,10.88
2022-09-14T02:42:58.273Z,8.07
2022-09-14T02:45:45.103Z,7.57
2022-09-14T02:48:28.003Z,8.40
2022-09-14T02:51:24.779Z,9.52
2022-09-14T02:53:52.505Z,6.20
2022-09-14T02:56:21.881Z,7.55
2022-09-14T02:58:49.885Z,8.20
2022-09-14T03:01:21.545Z,7.47
2022-09-14T03:03:49.534Z,8.75
2022-09-14T03:06:17.530Z,6.80
2022-09-14T03:08:45.322Z,6.60
2022-09-14T03:11:13.418Z,7.40
2022-09-14T03:13:41.577Z,7.00
2022-09-14T03:16:12.760Z,7.30
2022-09-14T03:18:40.957Z,6.30
2022-09-14T03:21:11.975Z,7.15
2022-09-14T03:23:45.199Z,6.70
2022-09-14T03:26:21.870Z,6.07
2022-09-14T03:28:54.850Z,6.32
2022-09-14T03:31:23.319Z,6.22
2022-09-14T03:33:56.525Z,5.85
2022-09-14T03:38:54.491Z,6.93
2022-09-14T03:41:23.534Z,7.30
2022-09-14T03:43:51.859Z,8.48
2022-09-14T03:46:21.990Z,6.95
2022-09-14T03:48:49.955Z,5.70
2022-09-14T03:51:17.999Z,7.20
2022-09-14T03:53:46.091Z,5.65
2022-09-14T03:56:21.069Z,4.55
2022-09-14T03:58:49.828Z,6.82
2022-09-14T04:01:20.257Z,8.25
2022-09-14T04:03:48.950Z,8.93
2022-09-14T04:06:17.935Z,7.45
2022-09-14T04:08:47.101Z,4.75
2022-09-14T04:11:25.301Z,6.55
2022-09-14T04:13:53.525Z,4.93
2022-09-14T04:16:22.311Z,7.63
2022-09-14T04:18:50.205Z,6.70
2022-09-14T04:21:20.579Z,7.82
2022-09-14T04:24:13.498Z,5.50
2022-09-14T04:26:37.076Z,9.85
2022-09-14T04:29:05.144Z,10.25
2022-09-14T04:31:33.542Z,9.05
2022-09-14T04:34:01.418Z,7.10
2022-09-14T04:36:31.298Z,7.35
2022-09-14T04:39:01.269Z,7.65
2022-09-14T04:41:30.324Z,14.90
2022-09-14T04:43:58.953Z,8.73
2022-09-14T04:46:30.097Z,8.13
2022-09-14T04:48:58.665Z,8.38
2022-09-14T04:51:29.405Z,8.05
2022-09-14T04:53:59.523Z,9.07
2022-09-14T04:56:30.852Z,10.65
2022-09-14T04:59:00.273Z,6.97
2022-09-14T05:01:30.586Z,6.65
2022-09-14T05:03:58.966Z,11.75
2022-09-14T05:06:29.371Z,7.18
2022-09-14T05:08:57.891Z,8.23
2022-09-14T05:11:29.836Z,8.95
2022-09-14T05:13:58.894Z,10.93
2022-09-14T05:16:29.214Z,8.43
2022-09-14T05:19:01.915Z,7.03
2022-09-14T05:21:31.321Z,7.25
2022-09-14T05:24:02.266Z,7.13
2022-09-14T05:26:31.750Z,9.73
2022-09-14T05:29:01.660Z,12.55
2022-09-14T05:31:32.044Z,6.65
2022-09-14T05:34:00.266Z,9.15
2022-09-14T05:36:28.145Z,6.68
2022-09-14T05:38:57.952Z,8.30
2022-09-14T05:41:25.804Z,10.15
2022-09-14T05:43:53.688Z,7.22
2022-09-14T05:46:25.206Z,5.65
2022-09-14T05:48:53.222Z,7.40
2022-09-14T05:51:23.732Z,8.90
2022-09-14T05:53:56.965Z,5.90
2022-09-14T05:56:27.329Z,7.10
2022-09-14T05:58:55.727Z,5.63
2022-09-14T06:01:26.521Z,5.45
2022-09-14T06:03:56.642Z,5.68
2022-09-14T06:06:25.071Z,5.22
2022-09-14T06:08:55.160Z,6.15
2022-09-14T06:11:32.692Z,5.38
2022-09-14T06:14:00.684Z,6.72
2022-09-14T06:16:29.290Z,5.95
2022-09-14T06:18:58.532Z,6.78
2022-09-14T06:21:31.543Z,6.65
2022-09-14T06:23:59.819Z,8.27
2022-09-14T06:26:27.698Z,5.50
2022-09-14T06:28:55.733Z,6.68
2022-09-14T06:31:25.137Z,6.90
2022-09-14T06:33:53.569Z,6.50
2022-09-14T06:36:23.881Z,11.32
2022-09-14T06:38:52.521Z,6.32
2022-09-14T06:41:23.321Z,6.78
2022-09-14T06:43:52.208Z,7.72
2022-09-14T06:46:23.685Z,7.47
2022-09-14T06:48:54.954Z,5.53
2022-09-14T06:51:27.183Z,6.53
2022-09-14T06:53:57.141Z,6.32
2022-09-14T07:01:27.690Z,5.35
2022-09-14T07:03:56.087Z,6.25
2022-09-14T07:06:25.755Z,5.00
2022-09-14T07:08:54.461Z,7.55
2022-09-14T07:11:25.946Z,6.13
2022-09-14T07:13:57.293Z,4.63
2022-09-14T07:16:26.592Z,5.72
2022-09-14T07:18:59.904Z,7.30
2022-09-14T07:21:29.116Z,8.40
2022-09-14T07:23:57.568Z,5.50
2022-09-14T07:26:31.326Z,6.15
2022-09-14T07:29:02.491Z,5.38
2022-09-14T07:31:32.031Z,8.50
2022-09-14T07:34:02.003Z,5.25
2022-09-14T07:36:34.559Z,4.82
2022-09-14T07:39:05.768Z,5.13
2022-09-14T07:41:34.894Z,7.28
2022-09-14T07:44:05.647Z,4.60
2022-09-14T07:46:39.201Z,6.22
2022-09-14T07:49:08.422Z,8.68
2022-09-14T07:51:37.191Z,6.95
2022-09-14T07:54:06.671Z,6.45
2022-09-14T07:56:35.179Z,9.20
2022-09-14T07:59:30.980Z,6.53
2022-09-14T08:01:51.898Z,6.57
2022-09-14T08:04:20.865Z,5.85
2022-09-14T08:06:48.544Z,5.38
2022-09-14T08:09:16.406Z,4.78
2022-09-14T08:11:44.202Z,3.15
2022-09-14T08:14:14.092Z,4.60
2022-09-14T08:16:42.203Z,3.45
2022-09-14T08:19:16.669Z,5.82
2022-09-14T08:21:47.236Z,3.92
2022-09-14T08:24:18.955Z,3.65
2022-09-14T08:26:47.845Z,4.35
2022-09-14T08:29:17.660Z,3.30
2022-09-14T08:31:47.213Z,4.13
2022-09-14T08:34:16.245Z,4.97
2022-09-14T08:36:45.567Z,5.43
2022-09-14T08:39:15.459Z,5.43
2022-09-14T08:41:51.546Z,5.28
2022-09-14T08:44:47.288Z,5.53
2022-09-14T08:47:27.004Z,3.50
2022-09-14T08:50:34.710Z,3.80
2022-09-14T08:53:05.719Z,5.72
2022-09-14T08:55:33.612Z,6.30
2022-09-14T08:58:04.069Z,3.88
2022-09-14T09:00:47.490Z,5.30
2022-09-14T09:03:39.387Z,9.13
2022-09-14T09:06:34.246Z,8.00
2022-09-14T09:09:07.748Z,8.30
2022-09-14T09:11:46.702Z,5.85
2022-09-14T09:14:38.758Z,7.75
2022-09-14T09:19:57.161Z,9.75
2022-09-14T09:22:28.156Z,7.53
2022-09-14T09:24:58.186Z,8.20
2022-09-14T09:31:59.151Z,4.13
2022-09-14T09:34:53.400Z,6.30
2022-09-14T09:37:47.525Z,4.22
2022-09-14T09:40:25.249Z,5.97
2022-09-14T09:43:13.411Z,4.80
2022-09-14T09:46:13.446Z,4.20
2022-09-14T09:48:45.041Z,4.75
2022-09-14T09:51:15.949Z,7.47
2022-09-14T09:53:52.932Z,5.82
2022-09-14T09:56:25.600Z,5.03
2022-09-14T09:58:53.987Z,6.15
2022-09-14T10:01:34.209Z,6.65
2022-09-14T10:04:17.711Z,6.88
2022-09-14T10:06:54.950Z,6.72
2022-09-14T10:09:28.988Z,3.10
2022-09-14T10:12:04.608Z,4.03
2022-09-14T10:14:38.328Z,4.95
2022-09-14T10:17:19.713Z,6.25
2022-09-14T10:19:54.994Z,3.35
2022-09-14T10:22:31.151Z,5.43
2022-09-14T10:25:02.195Z,3.67
2022-09-14T10:27:35.733Z,4.15
2022-09-14T10:30:20.232Z,4.70
2022-09-14T10:33:02.225Z,5.07
2022-09-14T10:35:39.029Z,4.85
2022-09-14T10:38:25.341Z,3.92
2022-09-14T10:41:22.998Z,3.78
2022-09-14T10:44:11.608Z,5.45
2022-09-14T10:47:25.548Z,3.65
2022-09-14T10:50:20.458Z,5.20
2022-09-14T10:52:51.062Z,5.60
2022-09-14T10:55:25.495Z,3.35
2022-09-14T10:58:17.991Z,3.45
2022-09-14T11:00:54.287Z,11.77
2022-09-14T11:03:35.520Z,3.67
2022-09-14T11:06:26.525Z,3.65
2022-09-14T11:09:05.846Z,3.65
2022-09-14T11:11:39.505Z,2.85
2022-09-14T11:14:39.881Z,2.33
2022-09-14T11:17:23.817Z,4.97
2022-09-14T11:20:19.376Z,2.95
2022-09-14T11:23:01.870Z,4.90
2022-09-14T11:28:19.263Z,4.93
2022-09-14T11:31:14.822Z,6.43
2022-09-14T11:34:06.077Z,3.78
2022-09-14T11:36:41.389Z,5.07
2022-09-14T11:39:09.170Z,3.72
2022-09-14T11:42:02.050Z,3.70
2022-09-14T11:47:09.703Z,3.60
2022-09-14T11:50:06.934Z,5.13
2022-09-14T11:52:34.957Z,3.22
2022-09-14T11:55:08.954Z,2.80
2022-09-14T11:57:38.356Z,3.20
2022-09-14T12:00:22.926Z,4.85
2022-09-14T12:03:18.533Z,3.70
2022-09-14T12:05:48.764Z,4.60
2022-09-14T12:08:36.974Z,4.45
2022-09-14T12:11:07.859Z,3.35
2022-09-14T12:13:37.448Z,4.32
2022-09-14T12:16:09.761Z,7.43
2022-09-14T12:21:18.626Z,5.07
2022-09-14T12:23:53.197Z,3.55
2022-09-14T12:26:21.086Z,5.20
2022-09-14T12:28:56.167Z,4.30
2022-09-14T12:31:49.600Z,3.55
2022-09-14T12:34:33.183Z,4.32
2022-09-14T12:37:08.664Z,4.85
2022-09-14T12:39:50.309Z,3.95
2022-09-14T12:42:29.897Z,4.82
2022-09-14T12:44:57.802Z,6.60
2022-09-14T12:47:25.662Z,2.90
2022-09-14T12:49:58.618Z,4.60
2022-09-14T12:52:33.907Z,3.55
2022-09-14T12:55:25.958Z,3.80
2022-09-14T12:58:09.776Z,3.42
2022-09-14T13:01:04.028Z,5.30
2022-09-14T13:03:55.953Z,4.43
2022-09-14T13:06:27.063Z,4.47
2022-09-14T13:08:58.329Z,4.88
2022-09-14T13:11:34.999Z,5.55
2022-09-14T13:14:03.519Z,4.82
2022-09-14T13:16:55.768Z,4.15
2022-09-14T13:19:28.593Z,5.25
2022-09-14T13:21:58.758Z,4.75
2022-09-14T13:24:26.652Z,5.65
2022-09-14T13:26:58.166Z,5.80
2022-09-14T13:29:27.137Z,3.63
2022-09-14T13:32:02.416Z,5.95
2022-09-14T13:34:35.987Z,4.32
2022-09-14T13:39:35.574Z,6.10
2022-09-14T13:42:04.612Z,3.42
2022-09-14T13:44:52.281Z,3.03
2022-09-14T13:47:22.912Z,5.68
2022-09-14T13:49:52.982Z,4.32
2022-09-14T13:52:33.971Z,7.47
2022-09-14T13:55:29.468Z,3.70
2022-09-14T13:58:14.145Z,4.00
2022-09-14T14:00:57.963Z,4.70
2022-09-14T14:03:33.743Z,6.68
2022-09-14T14:06:20.686Z,3.30
2022-09-14T14:09:01.484Z,9.35
2022-09-14T14:11:53.565Z,3.90
2022-09-14T14:14:30.848Z,5.30
2022-09-14T14:17:23.796Z,4.63
2022-09-14T14:19:53.721Z,4.53
2022-09-14T14:22:28.848Z,3.75
2022-09-14T14:25:14.557Z,5.38
2022-09-14T14:27:44.903Z,4.30
2022-09-14T14:30:18.698Z,4.75
2022-09-14T14:32:51.335Z,5.18
2022-09-14T14:37:50.917Z,5.25
2022-09-14T14:40:19.763Z,3.42
2022-09-14T14:42:49.072Z,5.63
2022-09-14T14:45:25.732Z,5.00
2022-09-14T14:47:55.448Z,5.43
2022-09-14T14:50:29.336Z,6.40
2022-09-14T14:52:57.567Z,4.97
2022-09-14T14:55:27.488Z,4.78
2022-09-14T14:58:01.034Z,5.93
2022-09-14T15:00:32.599Z,5.50
2022-09-14T15:03:00.381Z,4.28
2022-09-14T15:05:28.216Z,5.85
2022-09-14T15:07:56.220Z,8.57
2022-09-14T15:10:25.949Z,4.28
2022-09-14T15:12:54.716Z,7.35
2022-09-14T15:15:25.569Z,9.40
2022-09-14T15:17:53.942Z,4.65
2022-09-14T15:20:22.499Z,8.23
2022-09-14T15:22:50.706Z,4.35
2022-09-14T15:25:20.617Z,8.60
2022-09-14T15:27:48.467Z,5.88
2022-09-14T15:30:16.730Z,8.25
2022-09-14T15:32:44.812Z,7.63
2022-09-14T15:35:15.878Z,13.15
2022-09-14T15:37:43.898Z,7.00
2022-09-14T15:40:11.965Z,6.53
2022-09-14T15:42:39.867Z,4.72
2022-09-14T15:45:08.969Z,6.65
2022-09-14T15:47:36.919Z,6.50
2022-09-14T15:50:06.220Z,5.28
2022-09-14T15:52:38.186Z,8.25
2022-09-14T15:55:07.624Z,5.93
2022-09-14T15:57:36.246Z,5.85
2022-09-14T16:00:24.378Z,6.10
2022-09-14T16:02:52.174Z,4.68
2022-09-14T16:05:19.911Z,4.43
2022-09-14T16:07:47.829Z,3.90
2022-09-14T16:10:15.670Z,8.35
2022-09-14T16:12:43.403Z,5.25
2022-09-14T16:15:11.649Z,5.90
2022-09-14T16:17:39.488Z,7.22
2022-09-14T16:20:10.428Z,4.15
2022-09-14T16:22:38.233Z,3.65
2022-09-14T16:25:06.266Z,6.95
2022-09-14T16:27:34.122Z,4.90
2022-09-14T16:30:01.904Z,5.68
2022-09-14T16:32:31.412Z,3.65
2022-09-14T16:34:59.253Z,5.78
2022-09-14T16:37:27.095Z,4.25
2022-09-14T16:39:55.015Z,8.43
2022-09-14T16:42:22.878Z,4.45
2022-09-14T16:44:50.588Z,6.65
2022-09-14T16:47:18.403Z,6.68
2022-09-14T16:49:46.197Z,5.22
2022-09-14T16:52:13.979Z,5.93
2022-09-14T16:54:42.094Z,3.75
2022-09-14T16:57:10.172Z,4.95
2022-09-14T16:59:38.892Z,8.30
2022-09-14T17:02:06.793Z,8.13
2022-09-14T17:04:34.617Z,11.90
2022-09-14T17:07:02.488Z,13.57
2022-09-14T17:09:31.528Z,13.48
2022-09-14T17:12:00.189Z,20.00
2022-09-14T17:14:33.090Z,19.95
2022-09-14T17:17:01.381Z,15.90
2022-09-14T17:19:29.339Z,13.65
2022-09-14T17:21:57.216Z,15.40
2022-09-14T17:24:26.036Z,20.35
2022-09-14T17:26:53.981Z,16.60
2022-09-14T17:29:22.095Z,16.00
2022-09-14T17:31:50.756Z,13.18
2022-09-14T17:34:18.755Z,18.00
2022-09-14T17:36:46.547Z,14.00
2022-09-14T17:39:15.681Z,13.23
2022-09-14T17:41:44.364Z,12.70
2022-09-14T17:44:14.166Z,11.68
2022-09-14T17:46:51.254Z,11.85
2022-09-14T17:49:22.278Z,15.00
2022-09-14T17:51:51.082Z,16.48
2022-09-14T17:54:19.800Z,14.30
2022-09-14T17:56:47.968Z,111.95
2022-09-14T17:59:20.211Z,94.57
2022-09-14T18:01:49.952Z,112.50
2022-09-14T18:04:18.027Z,89.88
2022-09-14T18:06:48.346Z,36.25
2022-09-14T18:09:20.146Z,25.83
2022-09-14T18:11:49.087Z,28.50
2022-09-14T18:14:17.374Z,22.25
2022-09-14T18:16:45.927Z,19.80
2022-09-14T18:19:14.226Z,16.63
2022-09-14T18:21:42.681Z,26.33
2022-09-14T18:24:11.721Z,21.23
2022-09-14T18:26:39.682Z,21.73
2022-09-14T18:29:07.682Z,17.75
2022-09-14T18:31:35.641Z,13.80
2022-09-14T18:34:03.572Z,19.30
2022-09-14T18:36:31.578Z,15.48
2022-09-14T18:38:59.400Z,18.27
2022-09-14T18:41:34.038Z,23.02
2022-09-14T18:44:02.545Z,25.08
2022-09-14T18:46:31.024Z,19.77
2022-09-14T18:49:00.905Z,26.65
2022-09-14T18:51:30.362Z,20.30
2022-09-14T18:54:03.920Z,19.13
2022-09-14T18:56:35.614Z,17.15
2022-09-14T18:59:05.443Z,18.40
2022-09-14T19:01:35.049Z,15.95
2022-09-14T19:04:07.258Z,14.30
2022-09-14T19:06:36.913Z,17.13
2022-09-14T19:09:06.732Z,17.02
2022-09-14T19:11:35.834Z,14.25
2022-09-14T19:14:10.135Z,19.38
2022-09-14T19:16:39.703Z,18.60
2022-09-14T19:19:09.646Z,29.73
2022-09-14T19:21:37.593Z,32.05
2022-09-14T19:24:09.811Z,30.23
2022-09-14T19:26:45.371Z,34.10
2022-09-14T19:29:15.397Z,30.95
2022-09-14T19:31:43.675Z,29.75
2022-09-14T19:34:12.049Z,26.50
2022-09-14T19:36:39.985Z,22.40
2022-09-14T19:39:07.768Z,19.92
2022-09-14T19:41:36.184Z,14.98
2022-09-14T19:44:06.784Z,17.00
2022-09-14T19:46:36.401Z,14.18
2022-09-14T19:49:04.390Z,13.07
2022-09-14T19:51:32.644Z,13.15
2022-09-14T19:54:00.635Z,15.88
2022-09-14T19:56:30.690Z,13.82
2022-09-14T19:59:00.773Z,14.40
2022-09-14T20:01:31.115Z,12.98
2022-09-14T20:03:58.964Z,12.63
2022-09-14T20:06:31.680Z,10.40
2022-09-14T20:09:05.976Z,11.80
2022-09-14T20:11:35.369Z,16.17
2022-09-14T20:14:05.419Z,9.15
2022-09-14T20:16:45.319Z,12.80
2022-09-14T20:19:18.329Z,10.00
2022-09-14T20:24:18.506Z,7.28
2022-09-14T20:26:48.051Z,9.30
2022-09-14T20:29:17.573Z,9.70
2022-09-14T20:31:46.322Z,9.70
2022-09-14T20:34:16.442Z,8.50
2022-09-14T20:36:44.397Z,9.82
2022-09-14T20:39:12.213Z,9.48
2022-09-14T20:41:40.109Z,12.20
2022-09-14T20:44:08.642Z,10.85
2022-09-14T20:46:41.819Z,12.95
2022-09-14T20:49:14.977Z,8.50
2022-09-14T20:51:43.687Z,10.43
2022-09-14T20:54:14.275Z,11.23
2022-09-14T20:56:43.556Z,10.07
2022-09-14T20:59:14.344Z,10.57
2022-09-14T21:01:43.467Z,10.80
2022-09-14T21:04:14.998Z,12.25
2022-09-14T21:06:48.948Z,20.77
2022-09-14T21:09:18.367Z,21.73
2022-09-14T21:11:47.218Z,24.67
2022-09-14T21:14:16.522Z,23.95
2022-09-14T21:16:46.812Z,18.35
2022-09-14T21:19:20.750Z,14.60
2022-09-14T21:21:50.078Z,11.15
2022-09-14T21:24:20.382Z,12.45
2022-09-14T21:26:48.691Z,15.05
2022-09-14T21:29:20.952Z,14.68
2022-09-14T21:31:49.688Z,11.90
2022-09-14T21:34:18.085Z,11.15
2022-09-14T21:36:49.076Z,9.50
2022-09-14T21:39:21.453Z,8.98
2022-09-14T21:41:54.498Z,11.00
2022-09-14T21:44:33.078Z,10.35
2022-09-14T21:47:01.743Z,12.90
2022-09-14T21:49:29.938Z,10.05
2022-09-14T21:51:57.721Z,12.00
2022-09-14T21:54:25.770Z,9.05
2022-09-14T21:56:53.919Z,12.73
2022-09-14T21:59:22.925Z,12.48
2022-09-14T22:01:50.905Z,11.18
2022-09-14T22:04:21.528Z,11.90
2022-09-14T22:06:51.479Z,12.48
2022-09-14T22:09:22.168Z,13.48
2022-09-14T22:11:50.243Z,17.02
2022-09-14T22:14:20.741Z,15.43
2022-09-14T22:16:49.020Z,12.15
2022-09-14T22:19:20.927Z,11.27
2022-09-14T22:21:50.084Z,14.32
2022-09-14T22:24:24.058Z,11.30
2022-09-14T22:26:52.467Z,14.18
2022-09-14T22:29:20.369Z,10.10
2022-09-14T22:31:48.551Z,9.90
2022-09-14T22:34:16.915Z,10.73
2022-09-14T22:36:45.073Z,9.95
2022-09-14T22:39:13.727Z,10.82
2022-09-14T22:41:41.504Z,10.10
2022-09-14T22:44:11.148Z,13.55
2022-09-14T22:46:38.892Z,13.15
2022-09-14T22:49:06.606Z,10.57
2022-09-14T22:51:34.483Z,10.60
2022-09-14T22:54:02.286Z,10.05
2022-09-14T22:56:35.799Z,12.25
2022-09-14T22:59:08.231Z,14.45
2022-09-14T23:01:39.056Z,11.68
2022-09-14T23:04:11.344Z,9.07
2022-09-14T23:06:41.806Z,9.70
2022-09-14T23:09:12.706Z,14.23
2022-09-14T23:11:42.181Z,13.88
2022-09-14T23:14:10.626Z,14.15
2022-09-14T23:16:38.427Z,13.73
2022-09-14T23:19:06.966Z,11.20
2022-09-14T23:21:35.377Z,14.18
2022-09-14T23:24:05.665Z,10.25
2022-09-14T23:26:34.272Z,10.65
2022-09-14T23:29:05.718Z,10.15
2022-09-14T23:31:33.670Z,10.18
2022-09-14T23:34:03.180Z,11.48
2022-09-14T23:36:31.570Z,10.55
2022-09-14T23:38:59.459Z,11.68
2022-09-14T23:41:28.016Z,10.95
2022-09-14T23:43:55.891Z,16.00
2022-09-14T23:46:24.118Z,9.52
2022-09-14T23:48:52.394Z,10.98
2022-09-14T23:51:20.343Z,10.63
2022-09-14T23:53:48.403Z,11.15
2022-09-14T23:56:16.168Z,15.73
2022-09-14T23:58:44.247Z,11.77
